CDT,Max TemperatureF,Mean TemperatureF,Min TemperatureF,Max Dew PointF,MeanDew PointF,Min DewpointF,Max Humidity, Mean Humidity, Min Humidity, Max Sea Level PressureIn, Mean Sea Level PressureIn, Min Sea Level PressureIn, Max VisibilityMiles, Mean VisibilityMiles, Min VisibilityMiles, Max Wind SpeedMPH, Mean Wind SpeedMPH, Max Gust SpeedMPH,PrecipitationIn, CloudCover, Events, WindDirDegrees
2012-9-1,97,88,78,77,74,71,94,72,44,30.07,30.02,29.98,10,10,8,25,10,32,T,2,Thunderstorm,179
2012-9-2,98,88,78,77,73,67,94,71,36,30.07,30.01,29.91,10,10,10,18,9,23,0.00,2,,186
2012-9-3,99,88,76,76,72,65,94,70,34,30.03,29.96,29.86,10,10,7,17,9,22,0.00,2,,190
2012-9-4,101,89,77,76,71,62,94,68,29,29.98,29.92,29.82,10,10,8,17,10,25,0.00,3,,185
2012-9-5,101,89,76,75,71,62,94,71,29,29.94,29.88,29.80,10,10,8,15,7,20,0.00,2,,190
2012-9-6,100,89,77,75,71,61,94,67,28,29.98,29.90,29.83,10,10,10,14,5,17,0.00,2,,189
2012-9-7,101,88,75,75,69,60,94,60,27,29.91,29.85,29.77,10,10,8,14,6,30,0.00,0,,185
2012-9-8,86,82,78,71,62,47,74,53,36,30.03,29.95,29.81,10,10,10,18,10,26,0.00,1,,357
2012-9-9,93,79,65,55,46,37,54,33,15,30.13,30.05,29.99,10,10,10,15,7,23,0.00,0,,21
2012-9-10,93,79,65,60,53,46,78,43,22,30.12,30.05,29.99,10,10,10,13,5,16,0.00,0,,127
2012-9-11,92,78,64,65,60,55,79,54,30,30.09,30.03,29.97,10,10,10,17,6,23,0.00,0,,132
2012-9-12,97,85,72,73,68,63,84,66,32,30.06,30.00,29.92,10,10,10,20,9,25,0.00,3,,131
2012-9-13,92,83,73,75,72,66,96,82,48,30.14,30.07,30.01,10,10,4,25,6,31,0.16,4,Rain-Thunderstorm,142
2012-9-14,83,77,70,72,69,65,100,85,66,30.18,30.14,30.10,10,9,6,15,8,22,0.00,5,,335
2012-9-15,87,77,67,67,66,64,90,72,53,30.18,30.13,30.05,10,10,10,12,6,16,0.00,5,,342
2012-9-16,78,74,69,69,67,64,97,83,65,30.06,30.01,29.96,10,8,4,15,7,20,0.36,7,Rain,22
2012-9-17,83,76,68,68,66,63,96,81,52,29.98,29.87,29.78,10,9,6,14,5,32,0.01,5,Rain,332
2012-9-18,88,77,65,67,64,62,93,69,42,30.04,29.96,29.87,10,10,10,16,6,21,0.00,2,,343
2012-9-19,89,77,65,65,55,44,94,55,22,30.13,30.07,30.02,10,10,6,12,5,17,0.00,0,,67
2012-9-20,93,77,60,57,53,49,72,48,24,30.09,30.03,29.96,10,10,10,13,3,23,0.00,0,,143
2012-9-21,93,78,62,61,54,48,87,51,22,30.02,29.98,29.93,10,10,10,10,4,18,0.00,0,,138
2012-9-22,96,81,65,67,62,55,90,58,27,30.09,30.04,29.98,10,10,10,12,3,20,0.00,0,,147
2012-9-23,96,83,69,72,65,56,93,62,28,30.17,30.11,30.07,10,10,10,12,4,16,0.00,0,,170
2012-9-24,94,82,69,72,67,61,94,70,34,30.15,30.09,30.00,10,9,2,18,7,26,0.00,1,,172
2012-9-25,94,83,71,71,67,61,93,63,34,30.04,29.99,29.92,10,9,4,23,12,31,0.00,0,,170
2012-9-26,96,84,71,72,68,61,94,64,33,30.04,29.98,29.92,10,10,6,18,9,26,0.00,1,,153
2012-9-27,92,82,71,71,67,60,93,66,35,30.08,30.03,29.96,10,10,7,10,4,15,0.00,1,,130
2012-9-28,92,81,69,74,68,64,90,69,41,30.04,29.98,29.91,10,10,8,15,4,18,T,1,Rain,118
2012-9-29,80,77,73,75,73,72,100,92,81,29.93,29.83,29.68,10,8,1,18,8,22,2.63,8,Rain,140
2012-9-30,74,68,61,72,65,56,97,84,68,29.84,29.73,29.63,10,8,2,28,19,41,0.06,7,Rain,352